Grande Mariner — WCY6594 — position and weather

sailwx.info

Track history (hours):
 
Tides and Currents Weather Stations Pressure Air Temp Water Temp Dewpoint Dewpoint Depression Visibility Wind Speed Wind Dir Waves Ship Positions

Grande Mariner

Owner: AMERICAN CANADIAN CARIBBEAN LINE INC, WARREN, RI. More information available from US FCC via Universal Licensing System and Coast Guard Vessel Documentation Center.

Last reported at 2016-Apr-29 09:33 UTC. Time now 2016-Apr-29 21:43 UTC.
Position N 34°57' W 076°41'.

Length 56 m; draft 2 m.

Type: Passenger vessel. MMSI: 369024000.

Date/timePositionNaut miles runAvg speedWind from/ knotsBaromVisibWave heightAir tempDewpointWater temp
2016-Apr-29 09:33N 34°57' W 076°41'7 7.0
2016-Apr-29 08:33N 34°50' W 076°41'8 7.6
2016-Apr-29 07:33N 34°43' W 076°42'1 1.4
2016-Apr-29 06:34N 34°43' W 076°40'0 0.0
2016-Apr-29 05:33N 34°43' W 076°40'0 0.0
2016-Apr-29 04:33N 34°43' W 076°40'0 0.0
2016-Apr-29 03:33N 34°43' W 076°40'0 0.0
2016-Apr-29 02:33N 34°43' W 076°40'0 0.0
2016-Apr-29 01:33N 34°43' W 076°40'0 0.0
2016-Apr-29 00:33N 34°43' W 076°40'0 0.0
2016-Apr-28 23:34N 34°43' W 076°40'0 0.0
2016-Apr-28 22:33N 34°43' W 076°40'0 0.0
2016-Apr-28 21:33N 34°43' W 076°40'0 0.0
2016-Apr-28 20:33N 34°43' W 076°40'0 0.0
2016-Apr-28 19:33N 34°43' W 076°40'0 0.0
2016-Apr-28 18:34N 34°43' W 076°40'0 0.0
2016-Apr-28 17:33N 34°43' W 076°40'0 0.0
2016-Apr-28 16:33N 34°43' W 076°40'1 0.8
2016-Apr-28 15:33N 34°43' W 076°41'8 8.5
2016-Apr-28 14:33N 34°34' W 076°43'  
2016-Apr-24 12:19N 32°14' W 080°47'6 8.4
2016-Apr-24 11:33N 32°09' W 080°52'6 5.8
2016-Apr-24 10:33N 32°05' W 080°57'7 6.6
2016-Apr-24 09:34N 32°05' W 081°05'1 0.9
2016-Apr-24 08:33N 32°05' W 081°06'0 0.0
2016-Apr-24 07:33N 32°05' W 081°06'0 0.0
2016-Apr-24 06:33N 32°05' W 081°06'0 0.0
2016-Apr-24 05:34N 32°05' W 081°06'0 0.0
2016-Apr-24 04:33N 32°05' W 081°06'0 0.0
2016-Apr-24 03:33N 32°05' W 081°06'0 0.0
2016-Apr-24 02:33N 32°05' W 081°06'0 0.0
2016-Apr-24 01:33N 32°05' W 081°06'0 0.0
2016-Apr-24 00:33N 32°05' W 081°06'0 0.0
2016-Apr-23 23:34N 32°05' W 081°06'0 0.0
2016-Apr-23 22:33N 32°05' W 081°06'0 0.0
2016-Apr-23 21:34N 32°05' W 081°06'0 0.0
2016-Apr-23 20:33N 32°05' W 081°06'0 0.0
2016-Apr-23 19:34N 32°05' W 081°06'0 0.0
2016-Apr-23 18:33N 32°05' W 081°06'0 0.0
2016-Apr-23 17:33N 32°05' W 081°06'0 0.0
2016-Apr-23 16:33N 32°05' W 081°06'0 0.0
2016-Apr-23 15:33N 32°05' W 081°06'0 0.0
2016-Apr-23 14:33N 32°05' W 081°06'0 0.0
2016-Apr-23 13:34N 32°05' W 081°06'4 3.5
2016-Apr-23 12:34N 32°05' W 081°01'9 9.3
2016-Apr-23 11:33N 32°02' W 080°51'9 8.5
2016-Apr-23 10:33N 31°56' W 080°44'6 6.3
2016-Apr-23 09:33N 31°51' W 080°47'  
Track history (hours):
 
Tides and Currents Weather Stations Pressure Air Temp Water Temp Dewpoint Dewpoint Depression Visibility Wind Speed Wind Dir Waves Ship Positions

Grande Mariner

Owner: AMERICAN CANADIAN CARIBBEAN LINE INC, WARREN, RI. More information available from US FCC via Universal Licensing System and Coast Guard Vessel Documentation Center.

Last reported at 2016-Apr-29 09:33 UTC. Time now 2016-Apr-29 21:43 UTC.
Position N 34°57' W 076°41'.

Length 56 m; draft 2 m.

Type: Passenger vessel. MMSI: 369024000.

Date/timePositionNaut miles runAvg speedWind from/ knotsBaromVisibWave heightAir tempDewpointWater temp
2016-Apr-29 09:33N 34°57' W 076°41'7 7.0
2016-Apr-29 08:33N 34°50' W 076°41'8 7.6
2016-Apr-29 07:33N 34°43' W 076°42'1 1.4
2016-Apr-29 06:34N 34°43' W 076°40'0 0.0
2016-Apr-29 05:33N 34°43' W 076°40'0 0.0
2016-Apr-29 04:33N 34°43' W 076°40'0 0.0
2016-Apr-29 03:33N 34°43' W 076°40'0 0.0
2016-Apr-29 02:33N 34°43' W 076°40'0 0.0
2016-Apr-29 01:33N 34°43' W 076°40'0 0.0
2016-Apr-29 00:33N 34°43' W 076°40'0 0.0
2016-Apr-28 23:34N 34°43' W 076°40'0 0.0
2016-Apr-28 22:33N 34°43' W 076°40'0 0.0
2016-Apr-28 21:33N 34°43' W 076°40'0 0.0
2016-Apr-28 20:33N 34°43' W 076°40'0 0.0
2016-Apr-28 19:33N 34°43' W 076°40'0 0.0
2016-Apr-28 18:34N 34°43' W 076°40'0 0.0
2016-Apr-28 17:33N 34°43' W 076°40'0 0.0
2016-Apr-28 16:33N 34°43' W 076°40'1 0.8
2016-Apr-28 15:33N 34°43' W 076°41'8 8.5
2016-Apr-28 14:33N 34°34' W 076°43'  
2016-Apr-24 12:19N 32°14' W 080°47'6 8.4
2016-Apr-24 11:33N 32°09' W 080°52'6 5.8
2016-Apr-24 10:33N 32°05' W 080°57'7 6.6
2016-Apr-24 09:34N 32°05' W 081°05'1 0.9
2016-Apr-24 08:33N 32°05' W 081°06'0 0.0
2016-Apr-24 07:33N 32°05' W 081°06'0 0.0
2016-Apr-24 06:33N 32°05' W 081°06'0 0.0
2016-Apr-24 05:34N 32°05' W 081°06'0 0.0
2016-Apr-24 04:33N 32°05' W 081°06'0 0.0
2016-Apr-24 03:33N 32°05' W 081°06'0 0.0
2016-Apr-24 02:33N 32°05' W 081°06'0 0.0
2016-Apr-24 01:33N 32°05' W 081°06'0 0.0
2016-Apr-24 00:33N 32°05' W 081°06'0 0.0
2016-Apr-23 23:34N 32°05' W 081°06'0 0.0
2016-Apr-23 22:33N 32°05' W 081°06'0 0.0
2016-Apr-23 21:34N 32°05' W 081°06'0 0.0
2016-Apr-23 20:33N 32°05' W 081°06'0 0.0
2016-Apr-23 19:34N 32°05' W 081°06'0 0.0
2016-Apr-23 18:33N 32°05' W 081°06'0 0.0
2016-Apr-23 17:33N 32°05' W 081°06'0 0.0
2016-Apr-23 16:33N 32°05' W 081°06'0 0.0
2016-Apr-23 15:33N 32°05' W 081°06'0 0.0
2016-Apr-23 14:33N 32°05' W 081°06'0 0.0
2016-Apr-23 13:34N 32°05' W 081°06'4 3.5
2016-Apr-23 12:34N 32°05' W 081°01'9 9.3
2016-Apr-23 11:33N 32°02' W 080°51'9 8.5
2016-Apr-23 10:33N 31°56' W 080°44'6 6.3
2016-Apr-23 09:33N 31°51' W 080°47'  

Dump ship's entire track history